RJCM(METAR)
05/21 17:00
METAR RJCM 210800Z 18025G35KT 9999 FEW015 SCT070 BKN090 19/12 Q1001
RMK 1ST015 3AC070 6AC090 A2958=
戻る
トップページへ戻る
IMOC Co,.Ltd.